KTNU/TNU METAR and TAF weather

Enter ICAO airport designator
Station Type Date Time Source
KTNU METAR 2021/02/27 03:35 UTC NOAA

KTNU 270335Z AUTO 20009KT 10SM BKN100 02/01 A2979 RMK A01


Station Type Date Time Source
KTNU Decoded METAR 2021/02/27 03:35 UTC NOAA

Newton Municipal, IA, United States (KTNU) 41-41N 093-01W
Feb 26, 2021 - 10:35 PM EST / 2021.02.27 0335 UTC
Wind: from the SSW (200 degrees) at 10 MPH (9 KT):0
Visibility: 10 mile(s):0
Sky conditions: mostly cloudy
Temperature: 35 F (2 C)
Windchill: 26 F (-3 C):1
Dew Point: 33 F (1 C)
Relative Humidity: 93%
Pressure (altimeter): 29.79 in. Hg (1008 hPa)
ob: KTNU 270335Z AUTO 20009KT 10SM BKN100 02/01 A2979 RMK A01
cycle: 3

Station Type Date Time Source
KTNU TAF UTC NOAA

Error!

Example: see airport list